Aviation Digital Data Service (ADDS)

Output produced by METARs form (0817 UTC 29 January 2015)
found at http://aviationweather.gov/adds/metars/
 
KVQQ 290520Z 2906/3006 00000KT P6SM SKC 
     FM291500 05006KT P6SM SCT250 
     FM291800 14007KT P6SM SCT035 BKN250 
     FM300000 20005KT P6SM BKN250